Time;durP1;ratioP1;P1;durP2;ratioP2;P2;SDS_P1;SDS_P2;PMS_P1;PMS_P2;Temp;Humidity;BMP_temperature;BMP_pressure;BME280_temperature;BME280_humidity;BME280_pressure;Samples;Min_cycle;Max_cycle;Signal;HPM_P1;HPM_P2
2021/01/22 00:01:19;;;;;;;45.90;34.13;;;2.80;99.90;;;;;;4971583;28;20424;-75
2021/01/22 00:03:44;;;;;;;41.00;30.97;;;2.80;99.90;;;;;;4971431;28;20919;-75
2021/01/22 00:06:11;;;;;;;44.67;33.67;;;2.70;99.90;;;;;;4971764;28;20415;-75
2021/01/22 00:08:37;;;;;;;39.08;29.00;;;2.80;99.90;;;;;;4983426;28;20954;-75
2021/01/22 00:11:03;;;;;;;39.63;31.00;;;2.80;99.90;;;;;;4973208;28;20396;-75
2021/01/22 00:13:29;;;;;;;38.53;30.60;;;2.90;99.90;;;;;;4971398;28;20405;-75
2021/01/22 00:15:56;;;;;;;39.60;29.97;;;2.90;99.90;;;;;;4987820;28;20491;-74
2021/01/22 00:18:22;;;;;;;39.35;29.77;;;2.90;99.90;;;;;;4972613;28;20404;-75
2021/01/22 00:20:48;;;;;;;36.63;30.02;;;2.90;99.90;;;;;;4973049;28;20729;-75
2021/01/22 00:23:14;;;;;;;39.70;31.30;;;2.90;99.90;;;;;;4972670;28;20783;-74
2021/01/22 00:25:40;;;;;;;50.78;37.80;;;2.90;99.90;;;;;;4969334;28;20405;-75
2021/01/22 00:28:06;;;;;;;59.80;44.10;;;;;;;;;;4973022;28;20402;-74
2021/01/22 00:30:32;;;;;;;51.17;38.22;;;;;;;;;;4965225;28;20767;-75
2021/01/22 00:32:59;;;;;;;49.38;37.40;;;;;;;;;;4971488;28;20431;-75
2021/01/22 00:35:25;;;;;;;53.80;42.00;;;;;;;;;;4961230;28;20508;-74
2021/01/22 00:37:51;;;;;;;51.58;40.53;;;;;;;;;;4973627;28;20838;-74
2021/01/22 00:40:17;;;;;;;67.15;49.75;;;;;;;;;;4980620;28;20892;-74
2021/01/22 00:42:43;;;;;;;91.65;59.40;;;;;;;;;;4981758;28;20406;-75
2021/01/22 00:45:10;;;;;;;70.65;50.42;;;2.90;99.90;;;;;;4984971;28;20414;-74
2021/01/22 00:47:36;;;;;;;60.55;44.60;;;2.50;99.90;;;;;;4989035;28;20437;-75
2021/01/22 00:50:03;;;;;;;60.80;44.75;;;2.50;99.90;;;;;;4973341;28;20436;-75
2021/01/22 00:52:29;;;;;;;65.45;47.95;;;2.60;99.90;;;;;;4969337;28;20900;-74
2021/01/22 00:54:55;;;;;;;56.28;42.08;;;2.60;99.90;;;;;;4974887;28;20396;-75
2021/01/22 00:57:21;;;;;;;52.85;40.00;;;2.70;99.90;;;;;;4971539;28;20830;-75
2021/01/22 00:59:47;;;;;;;61.10;44.88;;;2.70;99.90;;;;;;4978912;28;20447;-75
2021/01/22 01:02:13;;;;;;;64.47;46.43;;;2.70;99.90;;;;;;4971028;28;20413;-75
2021/01/22 01:04:39;;;;;;;72.68;50.63;;;2.70;99.90;;;;;;4971150;28;20471;-75
2021/01/22 01:07:06;;;;;;;57.13;43.00;;;2.60;99.90;;;;;;4974252;28;20451;-75
2021/01/22 01:09:31;;;;;;;55.38;41.20;;;2.70;99.90;;;;;;4990884;28;20943;-75
2021/01/22 01:11:57;;;;;;;60.28;44.38;;;2.60;99.90;;;;;;4974514;28;20408;-74
2021/01/22 01:14:23;;;;;;;51.20;39.97;;;2.70;99.90;;;;;;4974244;28;20892;-75
2021/01/22 01:16:49;;;;;;;48.17;38.28;;;2.70;99.90;;;;;;4972803;28;20394;-75
2021/01/22 01:19:15;;;;;;;49.10;38.03;;;2.80;99.90;;;;;;4969393;28;20455;-74
2021/01/22 01:21:41;;;;;;;48.20;37.63;;;2.80;99.90;;;;;;4973961;28;20411;-75
2021/01/22 01:24:08;;;;;;;48.13;36.77;;;2.80;99.90;;;;;;4976708;28;20823;-75
2021/01/22 01:26:34;;;;;;;48.03;37.90;;;2.80;99.90;;;;;;4973965;28;20949;-74
2021/01/22 01:29:00;;;;;;;52.97;40.42;;;2.80;99.90;;;;;;4990477;28;20408;-75
2021/01/22 01:31:26;;;;;;;51.17;38.95;;;2.80;99.90;;;;;;4975674;28;20958;-74
2021/01/22 01:33:52;;;;;;;51.08;38.55;;;2.80;99.90;;;;;;4975608;28;20482;-74
2021/01/22 01:36:18;;;;;;;46.55;35.60;;;2.80;99.90;;;;;;4973841;28;20954;-75
2021/01/22 01:38:44;;;;;;;47.50;36.35;;;2.80;99.90;;;;;;4974200;28;20431;-75
2021/01/22 01:41:11;;;;;;;54.70;41.03;;;2.80;99.90;;;;;;4974878;28;20403;-75
2021/01/22 01:43:37;;;;;;;55.25;41.92;;;2.80;99.90;;;;;;4973939;28;20932;-75
2021/01/22 01:46:03;;;;;;;62.97;45.60;;;2.70;99.90;;;;;;4975208;28;20404;-75
2021/01/22 01:48:29;;;;;;;68.25;48.30;;;2.60;99.90;;;;;;4974704;28;20415;-75
2021/01/22 01:50:55;;;;;;;51.08;39.00;;;2.50;99.90;;;;;;4972458;28;20956;-74
2021/01/22 01:53:22;;;;;;;79.20;52.13;;;2.40;99.90;;;;;;4976565;28;20400;-74
2021/01/22 01:55:48;;;;;;;83.95;53.78;;;2.40;99.90;;;;;;4978138;28;20406;-74
2021/01/22 01:58:15;;;;;;;86.28;55.38;;;2.40;99.90;;;;;;4982368;28;20411;-74
2021/01/22 02:00:42;;;;;;;73.53;49.13;;;2.40;99.90;;;;;;4967507;28;20412;-74
2021/01/22 02:03:10;;;;;;;61.03;43.23;;;2.30;99.90;;;;;;4973415;28;20439;-75
2021/01/22 02:05:36;;;;;;;57.88;42.53;;;2.40;99.90;;;;;;4977245;28;20804;-74
2021/01/22 02:08:03;;;;;;;55.25;41.28;;;2.40;99.90;;;;;;4975885;28;20417;-74
2021/01/22 02:10:31;;;;;;;54.20;39.72;;;2.50;99.90;;;;;;4977528;28;20398;-75
2021/01/22 02:12:59;;;;;;;51.17;38.30;;;2.60;99.90;;;;;;4973561;28;20431;-75
2021/01/22 02:15:26;;;;;;;53.35;38.88;;;2.70;99.90;;;;;;4971516;28;20426;-74
2021/01/22 02:17:53;;;;;;;52.70;38.30;;;2.70;99.90;;;;;;4974016;28;20811;-75
2021/01/22 02:20:38;;;;;;;51.95;38.85;;;2.70;99.90;;;;;;4975812;28;20409;-74
2021/01/22 02:23:04;;;;;;;51.10;38.10;;;2.70;99.90;;;;;;4973002;28;20411;-74
2021/01/22 02:25:33;;;;;;;51.07;38.27;;;2.70;99.90;;;;;;4973372;28;20938;-74
2021/01/22 02:28:01;;;;;;;49.40;37.42;;;2.60;99.90;;;;;;4972977;28;20408;-74
2021/01/22 02:30:27;;;;;;;50.05;36.95;;;2.70;99.90;;;;;;4963141;28;20485;-74
2021/01/22 02:32:54;;;;;;;55.97;41.00;;;2.70;99.90;;;;;;4970794;28;20492;-74
2021/01/22 02:35:22;;;;;;;65.18;45.33;;;2.60;99.90;;;;;;4973151;28;20446;-74
2021/01/22 02:37:49;;;;;;;70.57;46.33;;;2.60;99.90;;;;;;4975898;28;20388;-75
2021/01/22 02:40:17;;;;;;;65.78;45.72;;;2.40;99.90;;;;;;4973149;28;20502;-74
2021/01/22 02:42:46;;;;;;;54.97;40.22;;;2.40;99.90;;;;;;4972959;28;20424;-74
2021/01/22 02:45:15;;;;;;;52.33;38.17;;;2.40;99.90;;;;;;4969495;28;20441;-74
2021/01/22 02:47:44;;;;;;;55.72;40.58;;;2.40;99.90;;;;;;4972925;28;20417;-74
2021/01/22 02:50:11;;;;;;;50.65;37.03;;;2.50;99.90;;;;;;4959219;28;20428;-75
2021/01/22 02:52:37;;;;;;;54.20;39.40;;;2.50;99.90;;;;;;4975119;28;20889;-75
2021/01/22 02:55:04;;;;;;;62.78;42.72;;;2.50;99.90;;;;;;4974831;28;20407;-74
2021/01/22 02:57:37;;;;;;;69.05;46.70;;;2.60;99.90;;;;;;4981747;28;20415;-74
2021/01/22 03:00:08;;;;;;;66.57;45.25;;;2.50;99.90;;;;;;4989849;28;20912;-75
2021/01/22 03:02:39;;;;;;;55.45;40.88;;;2.40;99.90;;;;;;4987399;28;20420;-75
2021/01/22 03:05:07;;;;;;;55.08;39.45;;;2.50;99.90;;;;;;4983801;28;20455;-75
2021/01/22 03:07:39;;;;;;;54.28;38.97;;;2.50;99.90;;;;;;4972017;28;20483;-75
2021/01/22 03:10:07;;;;;;;63.83;45.50;;;2.50;99.90;;;;;;4973299;28;20778;-75
2021/01/22 03:12:34;;;;;;;54.90;40.47;;;2.50;99.90;;;;;;4969136;28;20425;-74
2021/01/22 03:15:00;;;;;;;55.45;40.65;;;2.50;99.90;;;;;;4970869;28;20488;-75
2021/01/22 03:17:26;;;;;;;56.33;40.47;;;2.60;99.90;;;;;;4978478;28;20410;-74
2021/01/22 03:19:56;;;;;;;60.10;41.90;;;2.70;99.90;;;;;;4975270;28;20419;-74
2021/01/22 03:22:23;;;;;;;55.75;39.60;;;2.70;99.90;;;;;;4975057;28;20443;-74
2021/01/22 03:24:51;;;;;;;53.40;38.97;;;2.70;99.90;;;;;;4966788;28;20432;-74
2021/01/22 03:27:17;;;;;;;55.10;39.57;;;2.80;99.90;;;;;;4967154;28;20465;-75
2021/01/22 03:29:43;;;;;;;57.05;41.17;;;2.70;99.90;;;;;;4972212;28;20410;-74
2021/01/22 03:32:09;;;;;;;49.95;36.47;;;2.70;99.90;;;;;;4975835;28;20411;-75
2021/01/22 03:34:35;;;;;;;47.25;35.88;;;2.60;99.90;;;;;;4974205;28;20487;-74
2021/01/22 03:37:02;;;;;;;49.40;36.53;;;2.60;99.90;;;;;;4972169;28;20495;-75
2021/01/22 03:39:29;;;;;;;48.25;36.67;;;2.60;99.90;;;;;;4974201;28;20769;-75
2021/01/22 03:41:55;;;;;;;47.05;35.33;;;2.60;99.90;;;;;;4973339;28;20896;-75
2021/01/22 03:44:22;;;;;;;46.85;35.90;;;2.70;99.90;;;;;;4971744;28;20455;-74
2021/01/22 03:46:48;;;;;;;48.15;36.42;;;2.70;99.90;;;;;;4973367;28;20408;-74
2021/01/22 03:49:14;;;;;;;52.00;38.93;;;2.70;99.90;;;;;;4971492;28;21001;-74
2021/01/22 03:51:40;;;;;;;48.25;36.25;;;2.70;99.90;;;;;;4988088;28;20415;-74
2021/01/22 03:54:07;;;;;;;56.50;40.05;;;2.60;99.90;;;;;;4971878;28;20412;-74
2021/01/22 03:56:33;;;;;;;48.50;36.10;;;2.50;99.90;;;;;;4969911;28;20424;-75
2021/01/22 03:58:59;;;;;;;47.53;35.47;;;2.50;99.90;;;;;;4973164;28;20400;-74
2021/01/22 04:01:28;;;;;;;52.55;36.58;;;2.50;99.90;;;;;;4973024;28;20483;-74
2021/01/22 04:03:53;;;;;;;47.47;35.03;;;2.50;99.90;;;;;;4971616;28;20429;-75
2021/01/22 04:06:19;;;;;;;44.50;33.72;;;2.50;99.90;;;;;;4971394;28;20439;-75
2021/01/22 04:08:45;;;;;;;43.92;33.90;;;2.50;99.90;;;;;;4971875;28;20400;-74
2021/01/22 04:11:12;;;;;;;45.53;34.13;;;2.40;99.90;;;;;;4971531;28;20401;-75
2021/01/22 04:13:39;;;;;;;45.35;34.30;;;2.50;99.90;;;;;;4972816;28;20400;-75
2021/01/22 04:16:05;;;;;;;44.75;33.58;;;2.50;99.90;;;;;;4973032;28;20396;-75
2021/01/22 04:18:31;;;;;;;46.40;35.25;;;2.50;99.90;;;;;;4959432;28;20929;-74
2021/01/22 04:20:57;;;;;;;46.25;36.20;;;2.50;99.90;;;;;;4973337;28;20454;-75
2021/01/22 04:23:23;;;;;;;48.63;36.57;;;2.50;99.90;;;;;;4975601;28;20408;-74
2021/01/22 04:25:49;;;;;;;51.10;37.70;;;2.50;99.90;;;;;;4976541;28;20423;-74
2021/01/22 04:28:16;;;;;;;45.95;35.00;;;2.50;99.90;;;;;;4976854;28;20450;-74
2021/01/22 04:30:42;;;;;;;52.00;37.37;;;2.50;99.90;;;;;;4976838;28;20396;-75
2021/01/22 04:33:07;;;;;;;50.90;37.13;;;2.50;99.90;;;;;;4975357;28;20431;-75
2021/01/22 04:35:33;;;;;;;79.40;39.40;;;2.40;99.90;;;;;;4973526;28;20412;-74
2021/01/22 04:37:59;;;;;;;120.97;46.22;;;2.40;99.90;;;;;;4975055;28;20404;-74
2021/01/22 04:40:26;;;;;;;68.82;45.60;;;;;;;;;;4976578;28;20403;-74
2021/01/22 04:42:52;;;;;;;81.40;51.08;;;;;;;;;;4975007;28;21207;-75
2021/01/22 04:45:19;;;;;;;98.70;58.05;;;;;;;;;;4975123;28;20428;-74
2021/01/22 04:47:46;;;;;;;110.60;61.63;;;;;;;;;;4975093;28;20439;-75
2021/01/22 04:50:13;;;;;;;124.88;72.82;;;;;;;;;;4974769;28;20448;-74
2021/01/22 04:52:40;;;;;;;107.40;66.65;;;;;;;;;;4975044;28;20404;-74
2021/01/22 04:55:08;;;;;;;117.93;68.38;;;;;;;;;;4974664;28;20408;-74
2021/01/22 04:57:37;;;;;;;134.98;76.97;;;;;;;;;;4976374;28;20400;-75
2021/01/22 05:00:05;;;;;;;119.95;70.75;;;;;;;;;;4974573;28;20401;-74
2021/01/22 05:02:32;;;;;;;92.32;58.78;;;;;;;;;;4974661;28;20424;-74
2021/01/22 05:04:59;;;;;;;82.20;53.45;;;;;;;;;;4975943;28;20507;-75
2021/01/22 05:07:25;;;;;;;74.53;50.10;;;;;;;;;;4960889;28;20412;-74
2021/01/22 05:09:51;;;;;;;65.43;45.10;;;;;;;;;;4971330;28;20420;-75
2021/01/22 05:12:17;;;;;;;61.00;43.38;;;2.20;99.90;;;;;;4974622;28;20765;-74
2021/01/22 05:14:43;;;;;;;55.60;40.47;;;2.30;99.90;;;;;;4975951;28;20488;-74
2021/01/22 05:17:10;;;;;;;54.13;40.25;;;2.30;99.90;;;;;;4967359;28;20400;-75
2021/01/22 05:19:38;;;;;;;56.45;40.78;;;2.30;99.90;;;;;;4963810;28;20398;-74
2021/01/22 05:22:05;;;;;;;54.03;39.05;;;2.30;99.90;;;;;;4967585;28;20407;-74
2021/01/22 05:24:34;;;;;;;51.83;38.00;;;2.20;99.90;;;;;;4961040;28;20420;-75
2021/01/22 05:27:03;;;;;;;51.25;38.08;;;2.20;99.90;;;;;;4974364;28;20404;-75
2021/01/22 05:29:30;;;;;;;51.07;38.07;;;2.20;99.90;;;;;;4973250;28;20430;-74
2021/01/22 05:31:59;;;;;;;55.50;41.00;;;2.20;99.90;;;;;;4973465;28;20404;-74
2021/01/22 05:34:44;;;;;;;51.83;38.67;;;2.20;99.90;;;;;;4957326;28;20811;-74
2021/01/22 05:37:10;;;;;;;52.70;38.77;;;2.20;99.90;;;;;;4959435;28;20427;-75
2021/01/22 05:39:36;;;;;;;53.10;38.03;;;2.30;99.90;;;;;;4974569;28;20407;-74
2021/01/22 05:42:02;;;;;;;68.38;45.40;;;2.40;99.90;;;;;;4974627;28;20424;-75
2021/01/22 05:44:28;;;;;;;61.60;43.47;;;2.30;99.90;;;;;;4974255;28;20428;-74
2021/01/22 05:47:05;;;;;;;55.28;39.30;;;2.30;99.90;;;;;;4989771;28;20405;-74
2021/01/22 05:49:32;;;;;;;56.78;42.00;;;2.30;99.90;;;;;;4965336;28;25091;-75
2021/01/22 05:51:59;;;;;;;69.53;48.15;;;2.40;99.90;;;;;;4973916;28;20443;-74
2021/01/22 05:54:32;;;;;;;55.17;40.45;;;2.30;99.90;;;;;;4960636;28;20489;-75
2021/01/22 05:56:58;;;;;;;57.58;41.35;;;2.30;99.90;;;;;;4969953;28;20463;-74
2021/01/22 05:59:24;;;;;;;55.43;39.53;;;2.30;99.90;;;;;;4970341;28;20444;-74
2021/01/22 06:01:50;;;;;;;51.80;38.88;;;2.40;99.90;;;;;;4959003;28;20500;-74
2021/01/22 06:04:16;;;;;;;56.17;40.90;;;2.40;99.90;;;;;;4965230;28;20453;-74
2021/01/22 06:06:42;;;;;;;60.00;41.70;;;2.40;99.90;;;;;;4965830;28;20902;-74
2021/01/22 06:09:10;;;;;;;64.07;41.20;;;2.40;99.90;;;;;;4967405;28;20414;-74
2021/01/22 06:11:36;;;;;;;72.80;46.17;;;2.40;99.90;;;;;;4972240;28;20408;-74
2021/01/22 06:14:04;;;;;;;67.93;43.42;;;2.30;99.90;;;;;;4968721;28;20446;-74
2021/01/22 06:16:30;;;;;;;64.07;42.38;;;2.10;99.90;;;;;;4973582;28;20431;-75
2021/01/22 06:18:57;;;;;;;62.47;40.95;;;2.10;99.90;;;;;;4972854;28;20439;-75
2021/01/22 06:21:24;;;;;;;63.85;42.65;;;2.10;99.90;;;;;;4972239;28;20911;-74
2021/01/22 06:23:51;;;;;;;62.30;41.75;;;2.00;99.90;;;;;;4964962;28;20414;-75
2021/01/22 06:26:19;;;;;;;63.63;41.17;;;2.00;99.90;;;;;;4973452;28;20389;-75
2021/01/22 06:28:46;;;;;;;63.83;42.45;;;2.00;99.90;;;;;;4972412;28;20485;-75
2021/01/22 06:31:12;;;;;;;67.25;44.30;;;2.00;99.90;;;;;;4988439;28;20405;-75
2021/01/22 06:33:40;;;;;;;62.65;43.50;;;1.90;99.90;;;;;;4989099;28;20397;-75
2021/01/22 06:36:09;;;;;;;68.25;45.10;;;1.90;99.90;;;;;;4972490;28;20424;-74
2021/01/22 06:38:38;;;;;;;58.95;41.80;;;1.90;99.90;;;;;;4972473;28;20423;-74
2021/01/22 06:41:04;;;;;;;59.38;41.38;;;2.00;99.90;;;;;;4983190;28;20417;-75
2021/01/22 06:43:31;;;;;;;58.13;41.72;;;2.00;99.90;;;;;;4959727;28;20406;-74
2021/01/22 06:46:00;;;;;;;51.95;38.20;;;1.80;99.90;;;;;;4965759;28;20750;-75
2021/01/22 06:48:27;;;;;;;57.40;39.80;;;;;;;;;;4963148;28;20915;-75
2021/01/22 06:51:13;;;;;;;52.90;38.13;;;;;;;;;;4972681;28;20760;-74
2021/01/22 06:54:02;;;;;;;56.40;39.85;;;;;;;;;;4971910;28;25133;-74
2021/01/22 06:56:28;;;;;;;57.05;39.95;;;;;;;;;;4972489;28;25126;-74
2021/01/22 06:58:55;;;;;;;57.33;39.25;;;;;;;;;;4963484;28;20439;-74
2021/01/22 07:01:42;;;;;;;54.97;38.72;;;;;;;;;;4972527;28;20408;-74
2021/01/22 07:04:08;;;;;;;53.23;38.10;;;;;;;;;;4961355;28;25110;-74
2021/01/22 07:06:48;;;;;;;53.45;38.15;;;1.70;99.90;;;;;;4976678;28;20398;-74
2021/01/22 07:09:14;;;;;;;60.72;40.53;;;1.10;99.90;;;;;;4971073;28;20408;-74
2021/01/22 07:12:02;;;;;;;76.83;48.93;;;;;;;;;;4972484;28;20877;-74
2021/01/22 07:14:37;;;;;;;73.75;46.63;;;1.00;99.90;;;;;;4963352;28;20404;-75
2021/01/22 07:17:04;;;;;;;89.53;49.60;;;0.60;99.90;;;;;;4953562;28;20441;-74
2021/01/22 07:19:31;;;;;;;225.77;55.80;;;0.50;99.90;;;;;;4965931;28;20410;-74
2021/01/22 07:21:59;;;;;;;509.20;80.20;;;;;;;;;;4965517;28;20405;-74
2021/01/22 07:24:25;;;;;;;431.20;82.75;;;;;;;;;;4972026;28;20822;-74
2021/01/22 07:26:54;;;;;;;131.73;52.28;;;;;;;;;;4972256;28;20400;-74
2021/01/22 07:29:27;;;;;;;150.02;49.30;;;;;;;;;;4958529;28;20414;-74
2021/01/22 07:31:56;;;;;;;90.50;44.53;;;0.30;99.90;;;;;;4972287;28;20424;-74
2021/01/22 07:34:47;;;;;;;82.85;41.10;;;0.20;99.90;;;;;;4958589;28;20772;-74
2021/01/22 07:37:16;;;;;;;144.40;47.63;;;0.30;99.90;;;;;;4937081;28;20922;-74
2021/01/22 07:39:42;;;;;;;78.10;41.42;;;0.40;99.90;;;;;;4967700;28;20406;-74
2021/01/22 07:42:10;;;;;;;75.82;41.72;;;0.40;99.90;;;;;;4961674;28;20441;-74
2021/01/22 07:44:37;;;;;;;68.57;40.47;;;0.50;99.90;;;;;;4966231;28;20418;-74
2021/01/22 07:47:05;;;;;;;128.23;47.28;;;0.60;99.90;;;;;;4961914;28;20419;-74
2021/01/22 07:49:31;;;;;;;398.63;75.25;;;0.50;99.90;;;;;;4968911;28;20414;-74
2021/01/22 07:51:59;;;;;;;82.78;46.53;;;0.50;99.90;;;;;;4973239;28;20406;-74
2021/01/22 07:54:25;;;;;;;125.40;53.67;;;0.50;99.90;;;;;;4967299;28;20392;-75
2021/01/22 07:56:51;;;;;;;80.38;43.97;;;0.60;99.90;;;;;;4971610;28;20404;-74
2021/01/22 07:59:17;;;;;;;112.47;46.63;;;0.70;99.90;;;;;;4988185;28;20459;-74
2021/01/22 08:01:43;;;;;;;77.32;42.30;;;0.70;99.90;;;;;;4972692;28;20396;-74
2021/01/22 08:04:10;;;;;;;136.07;51.95;;;0.70;99.90;;;;;;4971754;28;20467;-74
2021/01/22 08:06:47;;;;;;;421.40;75.45;;;0.70;99.90;;;;;;4989269;28;20760;-74
2021/01/22 08:09:12;;;;;;;213.27;66.95;;;0.70;99.90;;;;;;4972893;28;20414;-74
2021/01/22 08:11:39;;;;;;;236.77;78.60;;;0.60;99.90;;;;;;4970196;28;20404;-74
2021/01/22 08:14:06;;;;;;;197.65;80.20;;;0.60;99.90;;;;;;4971576;28;20404;-75
2021/01/22 08:16:33;;;;;;;169.68;73.68;;;0.60;99.90;;;;;;4971813;28;20459;-74
2021/01/22 08:19:00;;;;;;;94.80;57.20;;;0.60;99.90;;;;;;4972865;28;20403;-75
2021/01/22 08:21:30;;;;;;;82.50;50.95;;;;;;;;;;4971778;28;20412;-74
2021/01/22 08:23:57;;;;;;;101.55;45.28;;;0.80;99.90;;;;;;4972705;28;20420;-74
2021/01/22 08:26:23;;;;;;;71.43;38.40;;;1.10;99.90;;;;;;4972913;28;20392;-74
2021/01/22 08:28:51;;;;;;;54.42;37.38;;;1.00;99.90;;;;;;4988119;28;20415;-74
2021/01/22 08:31:18;;;;;;;57.67;38.07;;;1.00;99.90;;;;;;4972659;28;20898;-74
2021/01/22 08:33:44;;;;;;;67.68;39.20;;;1.10;99.90;;;;;;4972934;28;20883;-74
2021/01/22 08:36:10;;;;;;;99.82;41.65;;;1.10;99.90;;;;;;4971461;28;20408;-75
2021/01/22 08:38:37;;;;;;;124.05;46.70;;;1.20;99.90;;;;;;4961920;28;20472;-74
2021/01/22 08:41:04;;;;;;;57.73;38.37;;;1.10;99.90;;;;;;4967727;28;20478;-75
2021/01/22 08:43:46;;;;;;;84.95;43.40;;;1.00;99.90;;;;;;4971423;28;20825;-75
2021/01/22 08:46:12;;;;;;;54.92;37.67;;;1.10;99.90;;;;;;4987478;28;20864;-74
2021/01/22 08:48:38;;;;;;;57.90;40.03;;;1.10;99.90;;;;;;4971206;28;20444;-74
2021/01/22 08:51:05;;;;;;;59.85;42.13;;;;;;;;;;4987388;28;20491;-75
2021/01/22 08:53:32;;;;;;;63.63;45.30;;;;;;;;;;4968284;28;20402;-74
2021/01/22 08:56:11;;;;;;;63.38;42.15;;;;;;;;;;4964643;28;20404;-74
2021/01/22 08:58:52;;;;;;;56.80;36.83;;;;;;;;;;4971420;28;20424;-74
2021/01/22 09:01:18;;;;;;;52.78;38.28;;;;;;;;;;4970721;28;20474;-74
2021/01/22 09:03:45;;;;;;;61.47;41.72;;;;;;;;;;4966019;28;20481;-74
2021/01/22 09:06:11;;;;;;;55.75;40.45;;;;;;;;;;4969521;28;20409;-74
2021/01/22 09:08:53;;;;;;;63.50;43.03;;;;;;;;;;4974037;28;20436;-74
2021/01/22 09:11:35;;;;;;;49.70;38.10;;;1.30;99.90;;;;;;4977533;28;20412;-74
2021/01/22 09:14:01;;;;;;;58.97;42.75;;;1.40;99.90;;;;;;4975855;28;20899;-75
2021/01/22 09:16:27;;;;;;;53.53;40.42;;;1.50;99.90;;;;;;4974735;28;20404;-74
2021/01/22 09:18:58;;;;;;;60.70;44.92;;;1.60;99.90;;;;;;4959141;28;20414;-75
2021/01/22 09:21:24;;;;;;;63.95;45.47;;;1.80;99.90;;;;;;4955433;28;20751;-74
2021/01/22 09:23:50;;;;;;;61.55;46.33;;;1.80;99.90;;;;;;4969164;28;20424;-74
2021/01/22 09:26:16;;;;;;;54.28;41.15;;;;;;;;;;4987563;28;20423;-75
2021/01/22 09:28:43;;;;;;;47.70;37.03;;;1.90;99.90;;;;;;4975901;28;20400;-75
2021/01/22 09:31:08;;;;;;;46.72;36.72;;;2.20;99.90;;;;;;4974262;28;20404;-75
2021/01/22 09:33:34;;;;;;;49.58;39.63;;;2.30;99.90;;;;;;4974468;28;20411;-75
2021/01/22 09:36:00;;;;;;;58.50;43.70;;;2.30;99.90;;;;;;4974554;28;20414;-75
2021/01/22 09:38:26;;;;;;;60.67;45.15;;;2.20;99.90;;;;;;4964628;28;20814;-75
2021/01/22 09:40:53;;;;;;;71.87;51.27;;;2.20;99.90;;;;;;4973849;28;20487;-75
2021/01/22 09:43:18;;;;;;;56.95;44.75;;;2.20;99.90;;;;;;4974253;28;20401;-75
2021/01/22 09:45:45;;;;;;;60.70;45.05;;;2.30;99.90;;;;;;4961995;28;20414;-75
2021/01/22 09:48:15;;;;;;;53.67;41.83;;;;;;;;;;4956421;28;20442;-75
2021/01/22 09:50:41;;;;;;;49.05;39.33;;;;;;;;;;4971420;28;20445;-75
2021/01/22 09:53:07;;;;;;;51.70;40.25;;;;;;;;;;4972304;28;20487;-75
2021/01/22 09:55:33;;;;;;;48.35;38.22;;;;;;;;;;4965390;28;20501;-75
2021/01/22 09:57:59;;;;;;;56.40;43.50;;;;;;;;;;4956308;28;20445;-75
2021/01/22 10:00:25;;;;;;;60.78;46.33;;;;;;;;;;4975052;28;20491;-75
2021/01/22 10:02:52;;;;;;;70.75;54.08;;;;;;;;;;4973648;28;20447;-75
2021/01/22 10:05:18;;;;;;;70.05;53.33;;;2.50;99.90;;;;;;4974846;28;20424;-75
2021/01/22 10:07:44;;;;;;;62.00;47.83;;;;;;;;;;4973831;28;20404;-75
2021/01/22 10:10:11;;;;;;;57.15;43.83;;;;;;;;;;4973058;28;20451;-75
2021/01/22 10:12:37;;;;;;;56.77;41.87;;;2.80;99.90;;;;;;4973626;28;20970;-75
2021/01/22 10:15:04;;;;;;;53.25;40.30;;;3.40;99.90;;;;;;4973609;28;20408;-75
2021/01/22 10:17:31;;;;;;;48.53;38.00;;;;;;;;;;4989027;28;20443;-75
2021/01/22 10:19:58;;;;;;;46.47;37.20;;;;;;;;;;4974806;28;21036;-75
2021/01/22 10:22:24;;;;;;;47.30;37.53;;;;;;;;;;4973218;28;20522;-75
2021/01/22 10:24:50;;;;;;;47.20;37.65;;;;;;;;;;4973405;28;20428;-75
2021/01/22 10:27:16;;;;;;;48.45;37.88;;;3.70;99.90;;;;;;4973166;28;20400;-75
2021/01/22 10:29:42;;;;;;;47.40;36.05;;;4.10;99.90;;;;;;4973409;28;20829;-75
2021/01/22 10:32:08;;;;;;;47.57;36.80;;;4.00;99.90;;;;;;4973269;28;20495;-75
2021/01/22 10:34:34;;;;;;;43.92;35.42;;;4.00;99.90;;;;;;4974309;28;20483;-75
2021/01/22 10:37:00;;;;;;;46.67;36.75;;;4.00;99.90;;;;;;4989201;28;20404;-75
2021/01/22 10:39:26;;;;;;;44.88;35.72;;;3.90;99.90;;;;;;4974181;28;21533;-75
2021/01/22 10:41:52;;;;;;;43.13;34.90;;;3.90;99.90;;;;;;4974319;28;20388;-75
2021/01/22 10:44:18;;;;;;;43.97;34.03;;;4.10;99.90;;;;;;4988908;28;20416;-75
2021/01/22 10:46:44;;;;;;;43.20;34.87;;;4.20;99.90;;;;;;4974179;28;20419;-75
2021/01/22 10:49:10;;;;;;;47.90;38.50;;;4.20;99.90;;;;;;4974229;28;20451;-75
2021/01/22 10:51:36;;;;;;;50.17;39.25;;;4.00;99.90;;;;;;4977023;28;20407;-75
2021/01/22 10:54:03;;;;;;;55.70;44.17;;;3.70;99.90;;;;;;4993106;28;20401;-75
2021/01/22 10:56:29;;;;;;;54.15;42.30;;;3.50;99.90;;;;;;4992265;28;20399;-75
2021/01/22 10:58:55;;;;;;;54.73;43.07;;;3.50;99.90;;;;;;4983151;28;20411;-75
2021/01/22 11:01:21;;;;;;;57.67;44.53;;;3.50;99.90;;;;;;4986112;28;20430;-75
2021/01/22 11:03:47;;;;;;;62.33;47.03;;;3.50;99.90;;;;;;4960143;28;20923;-75
2021/01/22 11:06:13;;;;;;;65.90;50.15;;;3.50;99.90;;;;;;4989617;28;20439;-75
2021/01/22 11:08:39;;;;;;;70.97;52.70;;;3.50;99.90;;;;;;4959701;28;20396;-75
2021/01/22 11:11:06;;;;;;;65.18;49.42;;;3.50;99.90;;;;;;4970960;28;20455;-75
2021/01/22 11:13:32;;;;;;;71.68;53.03;;;3.50;99.90;;;;;;4973737;28;20871;-75
2021/01/22 11:15:58;;;;;;;94.38;68.22;;;3.60;99.90;;;;;;4997047;28;20401;-75
2021/01/22 11:18:23;;;;;;;71.50;53.73;;;3.60;99.90;;;;;;4972316;28;20907;-75
2021/01/22 11:20:49;;;;;;;97.03;70.65;;;3.60;99.90;;;;;;4967134;28;20859;-75
2021/01/22 11:23:15;;;;;;;102.53;74.55;;;3.60;99.90;;;;;;4968402;28;20402;-75
2021/01/22 11:25:41;;;;;;;101.50;76.57;;;3.60;99.90;;;;;;4972063;28;20419;-75
2021/01/22 11:28:11;;;;;;;106.38;76.60;;;3.60;99.90;;;;;;4972278;28;20414;-75
2021/01/22 11:30:37;;;;;;;92.43;66.97;;;3.60;99.90;;;;;;4971274;28;20423;-75
2021/01/22 11:33:03;;;;;;;72.17;53.27;;;3.60;99.90;;;;;;4973570;28;20396;-75
2021/01/22 11:35:31;;;;;;;61.03;45.67;;;3.70;99.90;;;;;;4963953;28;20406;-75
2021/01/22 11:37:57;;;;;;;52.33;38.75;;;3.80;99.90;;;;;;4962458;28;20411;-75
2021/01/22 11:40:23;;;;;;;49.00;36.47;;;3.80;99.90;;;;;;4973625;28;20400;-75
2021/01/22 11:42:49;;;;;;;51.00;36.67;;;3.90;99.90;;;;;;4973204;28;20403;-75
2021/01/22 11:45:17;;;;;;;46.35;35.60;;;3.90;99.90;;;;;;4976793;28;20419;-75
2021/01/22 11:47:43;;;;;;;52.33;37.58;;;3.90;99.90;;;;;;4967363;28;20577;-75
2021/01/22 11:50:09;;;;;;;54.67;39.22;;;3.90;99.90;;;;;;4971689;28;20977;-75
2021/01/22 11:52:35;;;;;;;54.38;38.80;;;3.90;99.90;;;;;;4966226;28;20398;-75
2021/01/22 11:55:01;;;;;;;54.25;38.83;;;3.80;99.90;;;;;;4956571;28;20406;-75
2021/01/22 11:57:27;;;;;;;51.78;37.88;;;3.80;99.90;;;;;;4967975;28;20483;-75
2021/01/22 11:59:53;;;;;;;48.50;35.83;;;3.90;99.90;;;;;;4969598;28;20410;-75
2021/01/22 12:02:20;;;;;;;48.08;36.58;;;4.00;99.90;;;;;;4958428;28;20509;-74
2021/01/22 12:04:47;;;;;;;47.20;35.38;;;4.10;99.90;;;;;;4960138;28;20422;-74
2021/01/22 12:07:13;;;;;;;47.78;36.33;;;;;;;;;;4973803;28;20417;-74
2021/01/22 12:09:40;;;;;;;47.20;35.42;;;;;;;;;;4959899;28;20900;-74
2021/01/22 12:12:07;;;;;;;48.45;36.53;;;;;;;;;;4970167;28;20444;-74
2021/01/22 12:14:33;;;;;;;50.67;36.92;;;;;;;;;;4952923;28;20819;-74
2021/01/22 12:16:59;;;;;;;47.03;35.55;;;4.00;99.90;;;;;;4959212;28;20442;-75
2021/01/22 12:19:26;;;;;;;46.78;35.63;;;4.40;99.90;;;;;;4967901;28;20829;-74
2021/01/22 12:21:52;;;;;;;47.28;36.22;;;4.40;99.90;;;;;;4955238;28;20408;-75
2021/01/22 12:24:18;;;;;;;47.97;35.42;;;4.40;99.90;;;;;;4953597;28;20436;-75
2021/01/22 12:26:46;;;;;;;44.90;33.92;;;;;;;;;;4957515;28;20410;-75
2021/01/22 12:29:12;;;;;;;47.28;35.03;;;;;;;;;;4956637;28;20433;-75
2021/01/22 12:31:38;;;;;;;46.58;35.50;;;;;;;;;;4955028;28;20409;-75
2021/01/22 12:34:05;;;;;;;44.92;35.00;;;;;;;;;;4961985;28;20396;-75
2021/01/22 12:36:31;;;;;;;44.60;35.00;;;;;;;;;;4967388;28;20417;-74
2021/01/22 12:38:58;;;;;;;42.70;33.85;;;;;;;;;;4958206;28;20424;-75
2021/01/22 12:41:24;;;;;;;47.65;36.47;;;;;;;;;;4959491;28;20444;-75
2021/01/22 12:43:50;;;;;;;46.90;36.45;;;;;;;;;;4956664;28;20410;-75
2021/01/22 12:46:16;;;;;;;46.03;36.92;;;;;;;;;;4972461;28;20471;-75
2021/01/22 12:48:42;;;;;;;47.80;36.50;;;;;;;;;;4956608;28;20405;-75
2021/01/22 12:51:08;;;;;;;44.63;36.17;;;;;;;;;;4961876;28;20414;-75
2021/01/22 12:53:35;;;;;;;45.50;36.10;;;;;;;;;;4956184;28;20409;-75
2021/01/22 12:56:02;;;;;;;45.67;36.22;;;;;;;;;;4957512;28;20410;-74
2021/01/22 12:58:28;;;;;;;45.10;36.08;;;;;;;;;;4965344;28;20406;-75